sensor_id;sensor_type;location;lat;lon;timestamp;temperature;humidity
81311;DHT22;70779;52.506;5.492;2023-09-19T04:46:05;16.30;66.90
81311;DHT22;70779;52.506;5.492;2023-09-19T04:48:32;16.20;67.00
81311;DHT22;70779;52.506;5.492;2023-09-19T04:51:00;16.20;67.20
81311;DHT22;70779;52.506;5.492;2023-09-19T04:53:26;16.20;67.20
81311;DHT22;70779;52.506;5.492;2023-09-19T04:55:53;16.20;67.30
81311;DHT22;70779;52.506;5.492;2023-09-19T04:58:22;16.10;67.40
81311;DHT22;70779;52.506;5.492;2023-09-19T05:00:48;16.10;67.50
81311;DHT22;70779;52.506;5.492;2023-09-19T05:03:17;16.20;67.50
81311;DHT22;70779;52.506;5.492;2023-09-19T05:05:43;16.20;67.60
81311;DHT22;70779;52.506;5.492;2023-09-19T05:08:10;16.30;67.50
81311;DHT22;70779;52.506;5.492;2023-09-19T05:10:36;16.40;67.50
81311;DHT22;70779;52.506;5.492;2023-09-19T05:13:04;16.40;67.50
81311;DHT22;70779;52.506;5.492;2023-09-19T05:15:30;16.50;67.40
81311;DHT22;70779;52.506;5.492;2023-09-19T05:17:57;16.50;67.30
81311;DHT22;70779;52.506;5.492;2023-09-19T05:20:23;16.60;67.20
81311;DHT22;70779;52.506;5.492;2023-09-19T05:23:02;16.60;67.10
81311;DHT22;70779;52.506;5.492;2023-09-19T05:25:32;16.70;67.00
81311;DHT22;70779;52.506;5.492;2023-09-19T05:27:59;16.70;67.00
81311;DHT22;70779;52.506;5.492;2023-09-19T05:30:26;16.80;66.90
81311;DHT22;70779;52.506;5.492;2023-09-19T05:32:55;16.80;66.90
81311;DHT22;70779;52.506;5.492;2023-09-19T05:35:22;16.90;66.80
81311;DHT22;70779;52.506;5.492;2023-09-19T05:37:52;16.90;66.70
81311;DHT22;70779;52.506;5.492;2023-09-19T05:40:19;17.00;66.60
81311;DHT22;70779;52.506;5.492;2023-09-19T05:42:46;17.00;66.60
81311;DHT22;70779;52.506;5.492;2023-09-19T05:45:13;17.00;66.50
81311;DHT22;70779;52.506;5.492;2023-09-19T05:47:40;17.00;66.60
81311;DHT22;70779;52.506;5.492;2023-09-19T05:50:12;17.00;66.60
81311;DHT22;70779;52.506;5.492;2023-09-19T05:52:39;17.00;66.70
81311;DHT22;70779;52.506;5.492;2023-09-19T05:55:05;17.00;66.70
81311;DHT22;70779;52.506;5.492;2023-09-19T05:57:35;17.00;66.70
81311;DHT22;70779;52.506;5.492;2023-09-19T06:00:02;17.00;66.80
81311;DHT22;70779;52.506;5.492;2023-09-19T06:02:38;17.00;66.80
81311;DHT22;70779;52.506;5.492;2023-09-19T06:05:05;17.00;66.80
81311;DHT22;70779;52.506;5.492;2023-09-19T06:07:37;17.00;66.70
81311;DHT22;70779;52.506;5.492;2023-09-19T06:10:05;17.00;66.80
81311;DHT22;70779;52.506;5.492;2023-09-19T06:12:33;17.00;66.80
81311;DHT22;70779;52.506;5.492;2023-09-19T06:15:01;17.00;66.90
81311;DHT22;70779;52.506;5.492;2023-09-19T06:17:27;17.00;66.90
81311;DHT22;70779;52.506;5.492;2023-09-19T06:19:54;17.00;67.00
81311;DHT22;70779;52.506;5.492;2023-09-19T06:22:21;17.10;66.90
81311;DHT22;70779;52.506;5.492;2023-09-19T06:24:47;17.20;66.80
81311;DHT22;70779;52.506;5.492;2023-09-19T06:27:14;17.20;66.60
81311;DHT22;70779;52.506;5.492;2023-09-19T06:29:40;17.20;66.50
81311;DHT22;70779;52.506;5.492;2023-09-19T06:32:09;17.20;66.50
81311;DHT22;70779;52.506;5.492;2023-09-19T06:34:36;17.40;66.70
81311;DHT22;70779;52.506;5.492;2023-09-19T06:37:05;17.50;66.40
81311;DHT22;70779;52.506;5.492;2023-09-19T06:39:32;17.60;66.20
81311;DHT22;70779;52.506;5.492;2023-09-19T06:41:58;17.80;65.80
81311;DHT22;70779;52.506;5.492;2023-09-19T06:44:26;17.80;65.60
81311;DHT22;70779;52.506;5.492;2023-09-19T06:46:52;17.90;65.30
81311;DHT22;70779;52.506;5.492;2023-09-19T06:49:18;18.00;65.20
81311;DHT22;70779;52.506;5.492;2023-09-19T06:51:44;18.00;65.20
81311;DHT22;70779;52.506;5.492;2023-09-19T06:54:10;18.10;65.10
81311;DHT22;70779;52.506;5.492;2023-09-19T06:56:36;18.20;64.70
81311;DHT22;70779;52.506;5.492;2023-09-19T06:59:02;18.20;64.50
81311;DHT22;70779;52.506;5.492;2023-09-19T07:01:31;18.30;64.50
81311;DHT22;70779;52.506;5.492;2023-09-19T07:03:58;18.40;64.30
81311;DHT22;70779;52.506;5.492;2023-09-19T07:06:24;18.40;64.10
81311;DHT22;70779;52.506;5.492;2023-09-19T07:08:50;18.50;64.00
81311;DHT22;70779;52.506;5.492;2023-09-19T07:11:16;18.50;64.10
81311;DHT22;70779;52.506;5.492;2023-09-19T07:13:42;18.70;63.50
81311;DHT22;70779;52.506;5.492;2023-09-19T07:16:09;18.70;63.50
81311;DHT22;70779;52.506;5.492;2023-09-19T07:18:53;18.80;63.30
81311;DHT22;70779;52.506;5.492;2023-09-19T07:21:21;18.90;63.30
81311;DHT22;70779;52.506;5.492;2023-09-19T07:23:47;18.90;63.20
81311;DHT22;70779;52.506;5.492;2023-09-19T07:26:13;18.90;63.30
81311;DHT22;70779;52.506;5.492;2023-09-19T07:28:39;19.00;63.20
81311;DHT22;70779;52.506;5.492;2023-09-19T07:31:05;19.10;63.20
81311;DHT22;70779;52.506;5.492;2023-09-19T07:33:32;19.30;63.20
81311;DHT22;70779;52.506;5.492;2023-09-19T07:35:59;19.50;62.80
81311;DHT22;70779;52.506;5.492;2023-09-19T07:38:25;19.90;62.20
81311;DHT22;70779;52.506;5.492;2023-09-19T07:40:52;20.30;61.70
81311;DHT22;70779;52.506;5.492;2023-09-19T07:43:18;20.60;60.80
81311;DHT22;70779;52.506;5.492;2023-09-19T07:45:45;20.90;60.00
81311;DHT22;70779;52.506;5.492;2023-09-19T07:48:11;21.00;59.70
81311;DHT22;70779;52.506;5.492;2023-09-19T07:50:41;21.10;59.40
81311;DHT22;70779;52.506;5.492;2023-09-19T07:53:09;21.10;59.20
81311;DHT22;70779;52.506;5.492;2023-09-19T07:55:38;21.30;59.30
81311;DHT22;70779;52.506;5.492;2023-09-19T07:58:04;21.50;59.00
81311;DHT22;70779;52.506;5.492;2023-09-19T08:00:32;21.70;58.00
81311;DHT22;70779;52.506;5.492;2023-09-19T08:03:01;21.60;58.40
81311;DHT22;70779;52.506;5.492;2023-09-19T08:05:27;21.90;58.40
81311;DHT22;70779;52.506;5.492;2023-09-19T08:07:53;22.30;57.90
81311;DHT22;70779;52.506;5.492;2023-09-19T08:10:22;22.70;56.60
81311;DHT22;70779;52.506;5.492;2023-09-19T08:12:48;23.00;56.00
81311;DHT22;70779;52.506;5.492;2023-09-19T08:15:19;23.20;55.90
81311;DHT22;70779;52.506;5.492;2023-09-19T08:17:46;23.50;55.40
81311;DHT22;70779;52.506;5.492;2023-09-19T08:20:13;24.00;54.70
81311;DHT22;70779;52.506;5.492;2023-09-19T08:22:46;24.40;54.00
81311;DHT22;70779;52.506;5.492;2023-09-19T08:25:14;24.40;53.60
81311;DHT22;70779;52.506;5.492;2023-09-19T08:27:46;24.50;53.10
81311;DHT22;70779;52.506;5.492;2023-09-19T08:30:16;24.80;52.60
81311;DHT22;70779;52.506;5.492;2023-09-19T08:32:42;25.20;51.90
81311;DHT22;70779;52.506;5.492;2023-09-19T08:35:09;25.50;51.30
81311;DHT22;70779;52.506;5.492;2023-09-19T08:37:36;25.80;51.00
81311;DHT22;70779;52.506;5.492;2023-09-19T08:40:02;25.90;50.50
81311;DHT22;70779;52.506;5.492;2023-09-19T08:42:28;25.90;50.20
81311;DHT22;70779;52.506;5.492;2023-09-19T08:44:58;25.80;50.10
81311;DHT22;70779;52.506;5.492;2023-09-19T08:47:34;25.80;50.30
81311;DHT22;70779;52.506;5.492;2023-09-19T08:50:04;25.80;50.60
81311;DHT22;70779;52.506;5.492;2023-09-19T08:52:43;26.10;50.10
81311;DHT22;70779;52.506;5.492;2023-09-19T08:55:13;26.20;49.50
81311;DHT22;70779;52.506;5.492;2023-09-19T08:57:41;26.20;49.60
81311;DHT22;70779;52.506;5.492;2023-09-19T09:00:11;26.20;49.70
81311;DHT22;70779;52.506;5.492;2023-09-19T09:02:41;26.20;50.00
81311;DHT22;70779;52.506;5.492;2023-09-19T09:05:09;26.20;50.00
81311;DHT22;70779;52.506;5.492;2023-09-19T09:07:37;26.10;49.70
81311;DHT22;70779;52.506;5.492;2023-09-19T09:10:04;26.00;49.80
81311;DHT22;70779;52.506;5.492;2023-09-19T09:12:30;26.20;49.80
81311;DHT22;70779;52.506;5.492;2023-09-19T09:14:57;26.30;49.50
81311;DHT22;70779;52.506;5.492;2023-09-19T09:17:24;26.40;49.40
81311;DHT22;70779;52.506;5.492;2023-09-19T09:19:53;26.50;49.00
81311;DHT22;70779;52.506;5.492;2023-09-19T09:22:21;26.50;48.90
81311;DHT22;70779;52.506;5.492;2023-09-19T09:24:54;26.40;49.30
81311;DHT22;70779;52.506;5.492;2023-09-19T09:27:24;26.40;49.50
81311;DHT22;70779;52.506;5.492;2023-09-19T09:29:52;26.60;49.00
81311;DHT22;70779;52.506;5.492;2023-09-19T09:34:56;26.10;49.00
81311;DHT22;70779;52.506;5.492;2023-09-19T09:37:23;25.60;49.80
81311;DHT22;70779;52.506;5.492;2023-09-19T09:39:52;25.10;50.60
81311;DHT22;70779;52.506;5.492;2023-09-19T09:45:36;24.90;51.60
81311;DHT22;70779;52.506;5.492;2023-09-19T09:48:03;25.50;50.50
81311;DHT22;70779;52.506;5.492;2023-09-19T09:50:34;25.80;50.00
81311;DHT22;70779;52.506;5.492;2023-09-19T09:56:02;25.60;49.90
81311;DHT22;70779;52.506;5.492;2023-09-19T09:58:36;25.30;50.20
81311;DHT22;70779;52.506;5.492;2023-09-19T10:01:03;25.00;50.70
81311;DHT22;70779;52.506;5.492;2023-09-19T10:03:39;25.00;50.60
81311;DHT22;70779;52.506;5.492;2023-09-19T10:06:07;24.80;50.80
81311;DHT22;70779;52.506;5.492;2023-09-19T10:09:09;24.80;51.20
81311;DHT22;70779;52.506;5.492;2023-09-19T10:11:44;24.80;51.00
81311;DHT22;70779;52.506;5.492;2023-09-19T10:14:17;24.80;51.30
81311;DHT22;70779;52.506;5.492;2023-09-19T10:16:49;24.70;51.00
81311;DHT22;70779;52.506;5.492;2023-09-19T10:20:15;24.50;51.50
81311;DHT22;70779;52.506;5.492;2023-09-19T10:22:16;24.20;52.10
81311;DHT22;70779;52.506;5.492;2023-09-19T10:24:48;24.00;52.30
81311;DHT22;70779;52.506;5.492;2023-09-19T10:27:19;24.00;52.70
81311;DHT22;70779;52.506;5.492;2023-09-19T10:29:49;24.20;52.40
81311;DHT22;70779;52.506;5.492;2023-09-19T10:32:16;24.40;51.90
81311;DHT22;70779;52.506;5.492;2023-09-19T10:34:49;24.40;52.00
81311;DHT22;70779;52.506;5.492;2023-09-19T10:37:18;24.20;51.90
81311;DHT22;70779;52.506;5.492;2023-09-19T10:39:48;24.00;52.50
81311;DHT22;70779;52.506;5.492;2023-09-19T10:42:19;23.80;53.00
81311;DHT22;70779;52.506;5.492;2023-09-19T10:44:47;23.70;53.20
81311;DHT22;70779;52.506;5.492;2023-09-19T10:47:20;23.60;53.50
81311;DHT22;70779;52.506;5.492;2023-09-19T10:49:50;23.80;53.60
81311;DHT22;70779;52.506;5.492;2023-09-19T10:52:20;24.00;52.80
81311;DHT22;70779;52.506;5.492;2023-09-19T10:54:49;24.00;52.50
81311;DHT22;70779;52.506;5.492;2023-09-19T10:57:24;23.90;52.60
81311;DHT22;70779;52.506;5.492;2023-09-19T11:00:07;23.80;52.50
81311;DHT22;70779;52.506;5.492;2023-09-19T11:05:40;23.40;53.20
81311;DHT22;70779;52.506;5.492;2023-09-19T11:08:10;23.30;53.50
81311;DHT22;70779;52.506;5.492;2023-09-19T11:10:48;23.30;53.70
81311;DHT22;70779;52.506;5.492;2023-09-19T11:13:29;23.30;53.70
81311;DHT22;70779;52.506;5.492;2023-09-19T11:16:05;23.30;53.70
81311;DHT22;70779;52.506;5.492;2023-09-19T11:26:43;23.10;54.10
81311;DHT22;70779;52.506;5.492;2023-09-19T11:29:30;23.00;54.10
81311;DHT22;70779;52.506;5.492;2023-09-19T11:31:57;22.90;54.10
81311;DHT22;70779;52.506;5.492;2023-09-19T11:34:40;22.90;54.40
81311;DHT22;70779;52.506;5.492;2023-09-19T11:42:43;23.00;55.00
81311;DHT22;70779;52.506;5.492;2023-09-19T11:48:23;23.30;54.50
81311;DHT22;70779;52.506;5.492;2023-09-19T11:50:51;23.60;54.20
81311;DHT22;70779;52.506;5.492;2023-09-19T11:53:18;23.80;53.60
81311;DHT22;70779;52.506;5.492;2023-09-19T11:55:45;24.00;53.50
81311;DHT22;70779;52.506;5.492;2023-09-19T11:58:15;24.00;53.10
81311;DHT22;70779;52.506;5.492;2023-09-19T12:00:45;24.00;53.00
81311;DHT22;70779;52.506;5.492;2023-09-19T12:03:12;23.90;52.90
81311;DHT22;70779;52.506;5.492;2023-09-19T12:05:40;23.70;53.10
81311;DHT22;70779;52.506;5.492;2023-09-19T12:08:09;23.50;53.50
81311;DHT22;70779;52.506;5.492;2023-09-19T12:10:51;23.40;53.80
81311;DHT22;70779;52.506;5.492;2023-09-19T12:13:18;23.20;54.00
81311;DHT22;70779;52.506;5.492;2023-09-19T12:15:45;23.10;54.00
81311;DHT22;70779;52.506;5.492;2023-09-19T12:18:27;23.00;54.30
81311;DHT22;70779;52.506;5.492;2023-09-19T12:20:54;23.00;54.40
81311;DHT22;70779;52.506;5.492;2023-09-19T12:23:20;23.00;54.50
81311;DHT22;70779;52.506;5.492;2023-09-19T12:25:47;23.00;54.50
81311;DHT22;70779;52.506;5.492;2023-09-19T12:28:14;22.90;54.50
81311;DHT22;70779;52.506;5.492;2023-09-19T12:30:42;22.80;54.50
81311;DHT22;70779;52.506;5.492;2023-09-19T12:33:19;22.80;54.60
81311;DHT22;70779;52.506;5.492;2023-09-19T12:35:51;22.70;55.00
81311;DHT22;70779;52.506;5.492;2023-09-19T12:38:26;22.70;54.90
81311;DHT22;70779;52.506;5.492;2023-09-19T12:40:59;22.60;55.20
81311;DHT22;70779;52.506;5.492;2023-09-19T12:43:28;22.50;55.30
81311;DHT22;70779;52.506;5.492;2023-09-19T12:45:56;22.50;55.50
81311;DHT22;70779;52.506;5.492;2023-09-19T12:48:23;22.40;55.80
81311;DHT22;70779;52.506;5.492;2023-09-19T12:51:07;22.40;55.90
81311;DHT22;70779;52.506;5.492;2023-09-19T12:53:43;22.30;56.10
81311;DHT22;70779;52.506;5.492;2023-09-19T12:56:11;22.30;56.20
81311;DHT22;70779;52.506;5.492;2023-09-19T12:58:55;22.30;56.30
81311;DHT22;70779;52.506;5.492;2023-09-19T13:01:23;22.40;56.20
81311;DHT22;70779;52.506;5.492;2023-09-19T13:04:15;22.50;56.20
81311;DHT22;70779;52.506;5.492;2023-09-19T13:06:49;22.50;56.10
81311;DHT22;70779;52.506;5.492;2023-09-19T13:09:16;22.50;56.10
81311;DHT22;70779;52.506;5.492;2023-09-19T13:11:43;22.40;56.20
81311;DHT22;70779;52.506;5.492;2023-09-19T13:14:27;22.50;56.30
81311;DHT22;70779;52.506;5.492;2023-09-19T13:17:04;22.60;56.20
81311;DHT22;70779;52.506;5.492;2023-09-19T13:19:48;22.70;56.10
81311;DHT22;70779;52.506;5.492;2023-09-19T13:22:44;22.80;55.90
81311;DHT22;70779;52.506;5.492;2023-09-19T13:25:16;23.00;55.60
81311;DHT22;70779;52.506;5.492;2023-09-19T13:27:46;23.10;55.50
81311;DHT22;70779;52.506;5.492;2023-09-19T13:30:14;23.10;55.50
81311;DHT22;70779;52.506;5.492;2023-09-19T13:32:41;23.20;55.50
81311;DHT22;70779;52.506;5.492;2023-09-19T13:35:09;23.20;55.50
81311;DHT22;70779;52.506;5.492;2023-09-19T13:37:36;23.10;55.60
81311;DHT22;70779;52.506;5.492;2023-09-19T13:40:05;23.10;55.50
81311;DHT22;70779;52.506;5.492;2023-09-19T13:42:31;23.00;55.60
81311;DHT22;70779;52.506;5.492;2023-09-19T13:44:57;22.90;55.90
81311;DHT22;70779;52.506;5.492;2023-09-19T13:47:24;22.90;56.00
81311;DHT22;70779;52.506;5.492;2023-09-19T13:49:52;22.80;56.10
81311;DHT22;70779;52.506;5.492;2023-09-19T13:52:20;22.70;56.30
81311;DHT22;70779;52.506;5.492;2023-09-19T13:54:46;22.60;56.50
81311;DHT22;70779;52.506;5.492;2023-09-19T13:57:12;22.60;56.40
81311;DHT22;70779;52.506;5.492;2023-09-19T13:59:38;22.50;56.60
81311;DHT22;70779;52.506;5.492;2023-09-19T14:02:05;22.50;56.60
81311;DHT22;70779;52.506;5.492;2023-09-19T14:04:31;22.50;56.90
81311;DHT22;70779;52.506;5.492;2023-09-19T14:06:57;22.50;57.10
81311;DHT22;70779;52.506;5.492;2023-09-19T14:09:24;22.40;57.90
81311;DHT22;70779;52.506;5.492;2023-09-19T14:11:51;22.20;58.80
81311;DHT22;70779;52.506;5.492;2023-09-19T14:14:19;22.00;59.60
81311;DHT22;70779;52.506;5.492;2023-09-19T14:16:49;21.90;60.00
81311;DHT22;70779;52.506;5.492;2023-09-19T14:19:16;21.70;60.10
81311;DHT22;70779;52.506;5.492;2023-09-19T14:21:42;21.70;60.20
81311;DHT22;70779;52.506;5.492;2023-09-19T14:24:09;21.70;60.50
81311;DHT22;70779;52.506;5.492;2023-09-19T14:26:36;21.70;61.10
81311;DHT22;70779;52.506;5.492;2023-09-19T14:29:02;21.50;61.80
81311;DHT22;70779;52.506;5.492;2023-09-19T14:31:28;21.50;62.50
81311;DHT22;70779;52.506;5.492;2023-09-19T14:33:55;21.40;62.70
81311;DHT22;70779;52.506;5.492;2023-09-19T14:36:22;21.30;62.70
81311;DHT22;70779;52.506;5.492;2023-09-19T14:38:54;21.20;62.80
81311;DHT22;70779;52.506;5.492;2023-09-19T14:41:21;21.10;62.90
81311;DHT22;70779;52.506;5.492;2023-09-19T14:43:47;21.20;62.80
81311;DHT22;70779;52.506;5.492;2023-09-19T14:46:13;21.30;62.60
81311;DHT22;70779;52.506;5.492;2023-09-19T14:48:40;21.30;62.20
81311;DHT22;70779;52.506;5.492;2023-09-19T14:51:07;21.30;62.10
81311;DHT22;70779;52.506;5.492;2023-09-19T14:53:38;21.30;61.80
81311;DHT22;70779;52.506;5.492;2023-09-19T14:56:05;21.30;61.50
81311;DHT22;70779;52.506;5.492;2023-09-19T14:58:32;21.30;61.50
81311;DHT22;70779;52.506;5.492;2023-09-19T15:01:08;21.30;61.50
81311;DHT22;70779;52.506;5.492;2023-09-19T15:03:37;21.30;61.70
81311;DHT22;70779;52.506;5.492;2023-09-19T15:06:06;21.20;62.10
81311;DHT22;70779;52.506;5.492;2023-09-19T15:08:34;21.10;63.00
81311;DHT22;70779;52.506;5.492;2023-09-19T15:11:10;20.90;63.70
81311;DHT22;70779;52.506;5.492;2023-09-19T15:13:36;20.70;64.00
81311;DHT22;70779;52.506;5.492;2023-09-19T15:16:07;20.50;64.70
81311;DHT22;70779;52.506;5.492;2023-09-19T15:18:35;20.40;65.40
81311;DHT22;70779;52.506;5.492;2023-09-19T15:21:10;20.30;65.80
81311;DHT22;70779;52.506;5.492;2023-09-19T15:23:39;20.30;65.90
81311;DHT22;70779;52.506;5.492;2023-09-19T15:26:07;20.20;66.10
81311;DHT22;70779;52.506;5.492;2023-09-19T15:28:34;20.20;66.20
81311;DHT22;70779;52.506;5.492;2023-09-19T15:31:08;20.20;66.30
81311;DHT22;70779;52.506;5.492;2023-09-19T15:33:35;20.20;66.20
81311;DHT22;70779;52.506;5.492;2023-09-19T15:36:03;20.20;66.10
81311;DHT22;70779;52.506;5.492;2023-09-19T15:38:30;20.20;66.10
81311;DHT22;70779;52.506;5.492;2023-09-19T15:41:00;20.30;65.90
81311;DHT22;70779;52.506;5.492;2023-09-19T15:43:26;20.30;65.80
81311;DHT22;70779;52.506;5.492;2023-09-19T15:45:52;20.30;65.60
81311;DHT22;70779;52.506;5.492;2023-09-19T15:48:18;20.30;65.50
81311;DHT22;70779;52.506;5.492;2023-09-19T15:50:47;20.30;65.40
81311;DHT22;70779;52.506;5.492;2023-09-19T15:53:13;20.30;65.40
81311;DHT22;70779;52.506;5.492;2023-09-19T15:55:40;20.30;65.50
81311;DHT22;70779;52.506;5.492;2023-09-19T15:58:06;20.30;65.40
81311;DHT22;70779;52.506;5.492;2023-09-19T16:00:33;20.30;65.50
81311;DHT22;70779;52.506;5.492;2023-09-19T16:03:02;20.30;65.80
81311;DHT22;70779;52.506;5.492;2023-09-19T16:05:35;20.20;66.00
81311;DHT22;70779;52.506;5.492;2023-09-19T16:08:04;20.10;66.20
81311;DHT22;70779;52.506;5.492;2023-09-19T16:10:34;20.10;66.60
81311;DHT22;70779;52.506;5.492;2023-09-19T16:13:00;20.00;66.90
81311;DHT22;70779;52.506;5.492;2023-09-19T16:15:26;19.90;67.00
81311;DHT22;70779;52.506;5.492;2023-09-19T16:17:53;19.90;67.10
81311;DHT22;70779;52.506;5.492;2023-09-19T16:20:20;19.90;67.10
81311;DHT22;70779;52.506;5.492;2023-09-19T16:22:49;19.90;66.90
81311;DHT22;70779;52.506;5.492;2023-09-19T16:25:15;20.00;66.50
81311;DHT22;70779;52.506;5.492;2023-09-19T16:27:42;20.10;66.20
81311;DHT22;70779;52.506;5.492;2023-09-19T16:30:08;20.10;65.80
81311;DHT22;70779;52.506;5.492;2023-09-19T16:32:36;20.20;65.70
81311;DHT22;70779;52.506;5.492;2023-09-19T16:35:02;20.30;65.60
81311;DHT22;70779;52.506;5.492;2023-09-19T16:37:28;20.20;65.50
81311;DHT22;70779;52.506;5.492;2023-09-19T16:39:54;20.20;65.70
81311;DHT22;70779;52.506;5.492;2023-09-19T16:42:21;20.10;65.90
81311;DHT22;70779;52.506;5.492;2023-09-19T16:44:47;20.10;66.10
81311;DHT22;70779;52.506;5.492;2023-09-19T16:47:13;20.00;66.30
81311;DHT22;70779;52.506;5.492;2023-09-19T16:49:39;20.00;66.50
81311;DHT22;70779;52.506;5.492;2023-09-19T16:52:05;20.00;66.60
81311;DHT22;70779;52.506;5.492;2023-09-19T16:54:32;20.00;66.70
81311;DHT22;70779;52.506;5.492;2023-09-19T16:56:58;20.00;66.60
81311;DHT22;70779;52.506;5.492;2023-09-19T16:59:24;20.00;66.60
81311;DHT22;70779;52.506;5.492;2023-09-19T17:01:51;20.00;66.60
81311;DHT22;70779;52.506;5.492;2023-09-19T17:04:17;20.00;66.60
81311;DHT22;70779;52.506;5.492;2023-09-19T17:06:43;20.00;66.70
81311;DHT22;70779;52.506;5.492;2023-09-19T17:09:12;20.00;66.70
81311;DHT22;70779;52.506;5.492;2023-09-19T17:11:40;19.90;66.90
81311;DHT22;70779;52.506;5.492;2023-09-19T17:14:06;19.90;67.00
81311;DHT22;70779;52.506;5.492;2023-09-19T17:16:35;19.80;67.30
81311;DHT22;70779;52.506;5.492;2023-09-19T17:19:03;19.70;67.60
81311;DHT22;70779;52.506;5.492;2023-09-19T17:21:34;19.70;67.90
81311;DHT22;70779;52.506;5.492;2023-09-19T17:24:00;19.70;68.20
81311;DHT22;70779;52.506;5.492;2023-09-19T17:26:29;19.60;68.20
81311;DHT22;70779;52.506;5.492;2023-09-19T17:28:55;19.50;68.20
81311;DHT22;70779;52.506;5.492;2023-09-19T17:31:25;19.50;68.40
81311;DHT22;70779;52.506;5.492;2023-09-19T17:33:52;19.50;68.50
81311;DHT22;70779;52.506;5.492;2023-09-19T17:36:24;19.50;68.60
81311;DHT22;70779;52.506;5.492;2023-09-19T17:38:52;19.50;68.70
81311;DHT22;70779;52.506;5.492;2023-09-19T17:41:22;19.40;68.80
81311;DHT22;70779;52.506;5.492;2023-09-19T17:43:56;19.40;68.80
81311;DHT22;70779;52.506;5.492;2023-09-19T17:46:23;19.40;68.90
81311;DHT22;70779;52.506;5.492;2023-09-19T17:48:59;19.30;68.90
81311;DHT22;70779;52.506;5.492;2023-09-19T17:51:26;19.30;69.10
81311;DHT22;70779;52.506;5.492;2023-09-19T17:53:55;19.30;69.10
81311;DHT22;70779;52.506;5.492;2023-09-19T17:56:25;19.30;69.30
81311;DHT22;70779;52.506;5.492;2023-09-19T17:58:51;19.30;69.30
81311;DHT22;70779;52.506;5.492;2023-09-19T18:01:21;19.30;69.40
81311;DHT22;70779;52.506;5.492;2023-09-19T18:03:49;19.20;69.50
81311;DHT22;70779;52.506;5.492;2023-09-19T18:06:23;19.20;69.50
81311;DHT22;70779;52.506;5.492;2023-09-19T18:08:49;19.20;69.60
81311;DHT22;70779;52.506;5.492;2023-09-19T18:11:16;19.20;69.70
81311;DHT22;70779;52.506;5.492;2023-09-19T18:13:47;19.20;69.80
81311;DHT22;70779;52.506;5.492;2023-09-19T18:16:18;19.10;69.90
81311;DHT22;70779;52.506;5.492;2023-09-19T18:18:45;19.10;70.00
81311;DHT22;70779;52.506;5.492;2023-09-19T18:21:15;19.10;70.00
81311;DHT22;70779;52.506;5.492;2023-09-19T18:23:41;19.10;70.20
81311;DHT22;70779;52.506;5.492;2023-09-19T18:26:08;19.00;70.30
81311;DHT22;70779;52.506;5.492;2023-09-19T18:28:37;19.00;70.50
81311;DHT22;70779;52.506;5.492;2023-09-19T18:31:06;18.90;70.70
81311;DHT22;70779;52.506;5.492;2023-09-19T18:33:33;18.90;70.90
81311;DHT22;70779;52.506;5.492;2023-09-19T18:36:03;18.90;71.00
81311;DHT22;70779;52.506;5.492;2023-09-19T18:38:30;18.90;71.10
81311;DHT22;70779;52.506;5.492;2023-09-19T18:40:56;18.90;71.10
81311;DHT22;70779;52.506;5.492;2023-09-19T18:43:25;18.90;71.10
81311;DHT22;70779;52.506;5.492;2023-09-19T18:45:59;18.90;71.10
81311;DHT22;70779;52.506;5.492;2023-09-19T18:48:25;18.90;71.00
81311;DHT22;70779;52.506;5.492;2023-09-19T18:50:51;18.90;71.00
81311;DHT22;70779;52.506;5.492;2023-09-19T18:53:18;19.00;70.90
81311;DHT22;70779;52.506;5.492;2023-09-19T18:55:47;19.00;70.70
81311;DHT22;70779;52.506;5.492;2023-09-19T18:58:15;19.00;70.70
81311;DHT22;70779;52.506;5.492;2023-09-19T19:00:41;19.10;70.60
81311;DHT22;70779;52.506;5.492;2023-09-19T19:03:07;19.10;70.60
81311;DHT22;70779;52.506;5.492;2023-09-19T19:05:34;19.10;70.40
81311;DHT22;70779;52.506;5.492;2023-09-19T19:08:00;19.10;70.30
81311;DHT22;70779;52.506;5.492;2023-09-19T19:10:27;19.20;70.20
81311;DHT22;70779;52.506;5.492;2023-09-19T19:12:53;19.20;70.20
81311;DHT22;70779;52.506;5.492;2023-09-19T19:15:19;19.20;70.20
81311;DHT22;70779;52.506;5.492;2023-09-19T19:17:46;19.20;70.20
81311;DHT22;70779;52.506;5.492;2023-09-19T19:20:12;19.20;70.10
81311;DHT22;70779;52.506;5.492;2023-09-19T19:22:39;19.20;70.00
81311;DHT22;70779;52.506;5.492;2023-09-19T19:25:07;19.30;70.00
81311;DHT22;70779;52.506;5.492;2023-09-19T19:27:35;19.20;70.10
81311;DHT22;70779;52.506;5.492;2023-09-19T19:30:01;19.30;70.10
81311;DHT22;70779;52.506;5.492;2023-09-19T19:32:29;19.30;69.90
81311;DHT22;70779;52.506;5.492;2023-09-19T19:34:55;19.30;69.80
81311;DHT22;70779;52.506;5.492;2023-09-19T19:37:21;19.40;69.70
81311;DHT22;70779;52.506;5.492;2023-09-19T19:39:47;19.40;69.50
81311;DHT22;70779;52.506;5.492;2023-09-19T19:42:14;19.40;69.50
81311;DHT22;70779;52.506;5.492;2023-09-19T19:44:40;19.40;69.40
81311;DHT22;70779;52.506;5.492;2023-09-19T19:47:06;19.50;69.40
81311;DHT22;70779;52.506;5.492;2023-09-19T19:49:32;19.50;69.30
81311;DHT22;70779;52.506;5.492;2023-09-19T19:51:59;19.50;69.10
81311;DHT22;70779;52.506;5.492;2023-09-19T19:54:26;19.50;69.10
81311;DHT22;70779;52.506;5.492;2023-09-19T19:56:52;19.50;69.10
81311;DHT22;70779;52.506;5.492;2023-09-19T19:59:18;19.50;69.00
